sensor_id;sensor_type;location;lat;lon;timestamp;pressure;altitude;pressure_sealevel;temperature;humidity
77778;BME280;66966;-34.746;138.604;2023-02-08T00:00:44;101264.44;;;28.96;18.03
77778;BME280;66966;-34.746;138.604;2023-02-08T00:03:08;101264.21;;;28.79;17.59
77778;BME280;66966;-34.746;138.604;2023-02-08T00:05:33;101260.79;;;29.43;17.97
77778;BME280;66966;-34.746;138.604;2023-02-08T00:07:58;101258.15;;;28.87;17.76
77778;BME280;66966;-34.746;138.604;2023-02-08T00:10:23;101255.51;;;29.08;17.68
77778;BME280;66966;-34.746;138.604;2023-02-08T00:12:49;101258.27;;;29.29;17.68
77778;BME280;66966;-34.746;138.604;2023-02-08T00:15:13;101253.80;;;29.51;17.33
77778;BME280;66966;-34.746;138.604;2023-02-08T00:17:39;101252.79;;;29.99;16.91
77778;BME280;66966;-34.746;138.604;2023-02-08T00:20:04;101252.20;;;30.16;16.91
77778;BME280;66966;-34.746;138.604;2023-02-08T00:22:29;101250.44;;;29.82;16.73
77778;BME280;66966;-34.746;138.604;2023-02-08T00:24:54;101249.97;;;30.03;16.77
77778;BME280;66966;-34.746;138.604;2023-02-08T00:27:19;101248.01;;;30.17;16.18
77778;BME280;66966;-34.746;138.604;2023-02-08T00:29:44;101246.80;;;30.58;16.46
77778;BME280;66966;-34.746;138.604;2023-02-08T00:32:09;101244.51;;;30.49;16.82
77778;BME280;66966;-34.746;138.604;2023-02-08T00:34:35;101239.27;;;30.60;15.95
77778;BME280;66966;-34.746;138.604;2023-02-08T00:37:00;101239.13;;;30.78;15.86
77778;BME280;66966;-34.746;138.604;2023-02-08T00:39:25;101234.28;;;30.89;15.51
77778;BME280;66966;-34.746;138.604;2023-02-08T00:41:50;101232.68;;;30.50;15.84
77778;BME280;66966;-34.746;138.604;2023-02-08T00:44:15;101228.53;;;30.54;15.02
77778;BME280;66966;-34.746;138.604;2023-02-08T00:46:40;101229.18;;;30.92;15.19
77778;BME280;66966;-34.746;138.604;2023-02-08T00:49:05;101228.13;;;31.49;15.05
77778;BME280;66966;-34.746;138.604;2023-02-08T00:51:30;101233.32;;;31.25;15.19
77778;BME280;66966;-34.746;138.604;2023-02-08T00:53:55;101236.08;;;31.26;15.33
77778;BME280;66966;-34.746;138.604;2023-02-08T00:56:20;101240.69;;;31.40;14.77
77778;BME280;66966;-34.746;138.604;2023-02-08T00:58:45;101233.98;;;31.58;13.40
77778;BME280;66966;-34.746;138.604;2023-02-08T01:01:11;101229.06;;;31.93;14.41
77778;BME280;66966;-34.746;138.604;2023-02-08T01:03:37;101221.56;;;31.89;13.70
77778;BME280;66966;-34.746;138.604;2023-02-08T01:06:01;101218.34;;;31.48;13.96
77778;BME280;66966;-34.746;138.604;2023-02-08T01:08:25;101216.59;;;31.66;14.41
77778;BME280;66966;-34.746;138.604;2023-02-08T01:10:50;101206.09;;;32.09;14.58
77778;BME280;66966;-34.746;138.604;2023-02-08T01:13:15;101202.53;;;32.06;15.01
77778;BME280;66966;-34.746;138.604;2023-02-08T01:15:40;101197.66;;;32.26;14.03
77778;BME280;66966;-34.746;138.604;2023-02-08T01:18:05;101194.00;;;32.21;13.51
77778;BME280;66966;-34.746;138.604;2023-02-08T01:20:33;101190.24;;;32.55;13.35
77778;BME280;66966;-34.746;138.604;2023-02-08T01:22:56;101185.98;;;32.49;13.72
77778;BME280;66966;-34.746;138.604;2023-02-08T01:25:20;101178.57;;;32.61;14.08
77778;BME280;66966;-34.746;138.604;2023-02-08T01:27:45;101175.90;;;32.28;12.50
77778;BME280;66966;-34.746;138.604;2023-02-08T01:30:11;101180.08;;;32.74;12.87
77778;BME280;66966;-34.746;138.604;2023-02-08T01:32:35;101179.63;;;32.88;12.31
77778;BME280;66966;-34.746;138.604;2023-02-08T01:35:00;101174.09;;;32.68;12.50
77778;BME280;66966;-34.746;138.604;2023-02-08T01:37:25;101170.79;;;32.62;12.74
77778;BME280;66966;-34.746;138.604;2023-02-08T01:39:50;101166.48;;;33.04;12.85
77778;BME280;66966;-34.746;138.604;2023-02-08T01:42:17;101163.78;;;33.15;12.75
77778;BME280;66966;-34.746;138.604;2023-02-08T01:47:08;101161.97;;;33.65;11.85
77778;BME280;66966;-34.746;138.604;2023-02-08T01:49:35;101162.90;;;33.15;11.89
77778;BME280;66966;-34.746;138.604;2023-02-08T01:52:02;101158.06;;;33.22;13.22
77778;BME280;66966;-34.746;138.604;2023-02-08T01:54:27;101151.67;;;33.31;13.07
77778;BME280;66966;-34.746;138.604;2023-02-08T01:56:51;101151.32;;;33.31;13.08
77778;BME280;66966;-34.746;138.604;2023-02-08T01:59:21;101148.75;;;33.23;12.88
77778;BME280;66966;-34.746;138.604;2023-02-08T02:01:43;101144.37;;;33.25;14.20
77778;BME280;66966;-34.746;138.604;2023-02-08T02:04:09;101139.65;;;33.41;14.46
77778;BME280;66966;-34.746;138.604;2023-02-08T02:06:37;101140.64;;;33.32;15.61
77778;BME280;66966;-34.746;138.604;2023-02-08T02:09:08;101139.72;;;33.57;15.33
77778;BME280;66966;-34.746;138.604;2023-02-08T02:11:27;101138.52;;;33.51;15.78
77778;BME280;66966;-34.746;138.604;2023-02-08T02:13:52;101136.25;;;33.49;16.06
77778;BME280;66966;-34.746;138.604;2023-02-08T02:16:19;101130.06;;;33.43;16.22
77778;BME280;66966;-34.746;138.604;2023-02-08T02:18:44;101121.96;;;33.55;16.42
77778;BME280;66966;-34.746;138.604;2023-02-08T02:21:24;101117.24;;;33.52;16.59
77778;BME280;66966;-34.746;138.604;2023-02-08T02:33:27;101099.79;;;33.43;16.21
77778;BME280;66966;-34.746;138.604;2023-02-08T02:35:49;101096.62;;;33.41;15.99
77778;BME280;66966;-34.746;138.604;2023-02-08T02:38:17;101095.34;;;33.44;15.86
77778;BME280;66966;-34.746;138.604;2023-02-08T02:40:45;101093.29;;;33.59;15.88
77778;BME280;66966;-34.746;138.604;2023-02-08T02:43:08;101085.29;;;33.83;15.12
77778;BME280;66966;-34.746;138.604;2023-02-08T02:45:34;101080.73;;;33.84;15.29
77778;BME280;66966;-34.746;138.604;2023-02-08T02:48:01;101073.45;;;33.96;15.15
77778;BME280;66966;-34.746;138.604;2023-02-08T02:50:27;101065.90;;;33.58;14.81
77778;BME280;66966;-34.746;138.604;2023-02-08T02:52:49;101060.13;;;33.74;14.79
77778;BME280;66966;-34.746;138.604;2023-02-08T02:55:15;101054.29;;;33.61;15.34
77778;BME280;66966;-34.746;138.604;2023-02-08T02:57:38;101047.55;;;34.12;14.25
77778;BME280;66966;-34.746;138.604;2023-02-08T03:00:08;101041.10;;;34.03;13.98
77778;BME280;66966;-34.746;138.604;2023-02-08T03:02:30;101037.39;;;34.20;13.55
77778;BME280;66966;-34.746;138.604;2023-02-08T03:04:56;101031.47;;;34.53;13.79
77778;BME280;66966;-34.746;138.604;2023-02-08T03:07:41;101030.01;;;34.60;13.59
77778;BME280;66966;-34.746;138.604;2023-02-08T03:09:56;101031.30;;;34.65;13.13
77778;BME280;66966;-34.746;138.604;2023-02-08T03:12:25;101027.71;;;34.33;13.03
77778;BME280;66966;-34.746;138.604;2023-02-08T03:14:44;101030.36;;;34.50;13.00
77778;BME280;66966;-34.746;138.604;2023-02-08T03:17:16;101029.79;;;34.93;13.00
77778;BME280;66966;-34.746;138.604;2023-02-08T03:19:35;101029.03;;;35.20;12.67
77778;BME280;66966;-34.746;138.604;2023-02-08T03:22:00;101028.49;;;34.69;12.15
77778;BME280;66966;-34.746;138.604;2023-02-08T03:24:26;101027.57;;;35.14;12.25
77778;BME280;66966;-34.746;138.604;2023-02-08T03:26:54;101023.44;;;35.25;12.40
77778;BME280;66966;-34.746;138.604;2023-02-08T03:29:18;101019.77;;;35.26;12.31
77778;BME280;66966;-34.746;138.604;2023-02-08T03:31:43;101020.75;;;35.01;12.76
77778;BME280;66966;-34.746;138.604;2023-02-08T03:34:07;101022.82;;;35.07;12.41
77778;BME280;66966;-34.746;138.604;2023-02-08T03:36:33;101019.61;;;35.14;12.52
77778;BME280;66966;-34.746;138.604;2023-02-08T03:38:56;101016.62;;;34.97;12.39
77778;BME280;66966;-34.746;138.604;2023-02-08T03:41:27;101013.16;;;35.45;13.57
77778;BME280;66966;-34.746;138.604;2023-02-08T03:43:53;101015.15;;;35.58;13.79
77778;BME280;66966;-34.746;138.604;2023-02-08T03:46:17;101013.11;;;35.61;14.32
77778;BME280;66966;-34.746;138.604;2023-02-08T03:48:44;101016.76;;;35.66;13.18
77778;BME280;66966;-34.746;138.604;2023-02-08T03:51:06;101010.41;;;35.33;13.45
77778;BME280;66966;-34.746;138.604;2023-02-08T03:53:32;101011.61;;;35.30;14.53
77778;BME280;66966;-34.746;138.604;2023-02-08T03:56:00;101011.53;;;35.55;14.14
77778;BME280;66966;-34.746;138.604;2023-02-08T03:58:25;101011.32;;;35.21;13.98
77778;BME280;66966;-34.746;138.604;2023-02-08T04:00:53;101009.90;;;34.78;14.18
77778;BME280;66966;-34.746;138.604;2023-02-08T04:03:18;101011.47;;;34.47;14.27
77778;BME280;66966;-34.746;138.604;2023-02-08T04:05:40;101016.83;;;34.68;14.17
77778;BME280;66966;-34.746;138.604;2023-02-08T04:08:06;101017.79;;;34.29;14.36
77778;BME280;66966;-34.746;138.604;2023-02-08T04:10:32;101016.81;;;34.15;14.64
77778;BME280;66966;-34.746;138.604;2023-02-08T04:12:58;101011.86;;;33.98;15.80
77778;BME280;66966;-34.746;138.604;2023-02-08T04:15:23;101000.37;;;34.41;15.65
77778;BME280;66966;-34.746;138.604;2023-02-08T04:17:49;101001.41;;;34.33;14.46
77778;BME280;66966;-34.746;138.604;2023-02-08T04:20:15;101003.13;;;34.70;14.41
77778;BME280;66966;-34.746;138.604;2023-02-08T04:22:41;101000.11;;;35.18;13.22
77778;BME280;66966;-34.746;138.604;2023-02-08T04:25:07;101001.36;;;35.11;13.26
77778;BME280;66966;-34.746;138.604;2023-02-08T04:27:32;100998.40;;;35.38;13.21
77778;BME280;66966;-34.746;138.604;2023-02-08T04:29:58;100994.97;;;35.22;13.35
77778;BME280;66966;-34.746;138.604;2023-02-08T04:32:24;100994.93;;;34.88;13.35
77778;BME280;66966;-34.746;138.604;2023-02-08T04:34:50;100997.07;;;34.80;14.28
77778;BME280;66966;-34.746;138.604;2023-02-08T04:37:16;100991.85;;;35.02;14.33
77778;BME280;66966;-34.746;138.604;2023-02-08T04:39:41;100992.39;;;34.96;14.97
77778;BME280;66966;-34.746;138.604;2023-02-08T04:42:08;100991.65;;;35.06;14.32
77778;BME280;66966;-34.746;138.604;2023-02-08T04:44:33;100991.75;;;34.70;14.00
77778;BME280;66966;-34.746;138.604;2023-02-08T04:46:59;100990.23;;;34.31;13.42
77778;BME280;66966;-34.746;138.604;2023-02-08T04:49:25;100989.15;;;33.94;13.35
77778;BME280;66966;-34.746;138.604;2023-02-08T04:51:50;100980.50;;;34.09;13.53
77778;BME280;66966;-34.746;138.604;2023-02-08T04:54:16;100975.90;;;33.95;13.79
77778;BME280;66966;-34.746;138.604;2023-02-08T04:56:42;100973.88;;;33.82;13.55
77778;BME280;66966;-34.746;138.604;2023-02-08T04:59:08;100978.65;;;33.74;13.89
77778;BME280;66966;-34.746;138.604;2023-02-08T05:01:34;100976.80;;;34.13;13.47
77778;BME280;66966;-34.746;138.604;2023-02-08T05:04:00;100973.19;;;34.16;13.30
77778;BME280;66966;-34.746;138.604;2023-02-08T05:06:25;100967.40;;;34.22;12.91
77778;BME280;66966;-34.746;138.604;2023-02-08T05:08:51;100965.91;;;34.29;12.81
77778;BME280;66966;-34.746;138.604;2023-02-08T05:11:20;100968.50;;;34.34;12.07
77778;BME280;66966;-34.746;138.604;2023-02-08T05:13:43;100973.24;;;34.41;12.31
77778;BME280;66966;-34.746;138.604;2023-02-08T05:16:09;100979.32;;;34.20;12.54
77778;BME280;66966;-34.746;138.604;2023-02-08T05:18:34;100977.73;;;34.42;12.54
77778;BME280;66966;-34.746;138.604;2023-02-08T05:21:01;100970.13;;;34.33;13.18
77778;BME280;66966;-34.746;138.604;2023-02-08T05:23:27;100965.29;;;34.07;13.80
77778;BME280;66966;-34.746;138.604;2023-02-08T05:25:52;100968.18;;;34.06;13.70
77778;BME280;66966;-34.746;138.604;2023-02-08T05:28:18;100978.45;;;34.03;14.32
77778;BME280;66966;-34.746;138.604;2023-02-08T05:30:44;100983.61;;;33.59;15.56
77778;BME280;66966;-34.746;138.604;2023-02-08T05:33:09;100984.34;;;33.44;17.16
77778;BME280;66966;-34.746;138.604;2023-02-08T05:35:35;100982.68;;;32.71;16.99
77778;BME280;66966;-34.746;138.604;2023-02-08T05:38:02;100981.31;;;32.74;16.70
77778;BME280;66966;-34.746;138.604;2023-02-08T05:40:27;100975.17;;;33.20;16.67
77778;BME280;66966;-34.746;138.604;2023-02-08T05:42:53;100972.32;;;33.48;16.58
77778;BME280;66966;-34.746;138.604;2023-02-08T05:45:19;100971.52;;;33.62;16.47
77778;BME280;66966;-34.746;138.604;2023-02-08T05:47:45;100960.96;;;34.07;16.53
77778;BME280;66966;-34.746;138.604;2023-02-08T05:50:11;100956.02;;;34.29;16.50
77778;BME280;66966;-34.746;138.604;2023-02-08T05:52:36;100951.99;;;34.08;16.20
77778;BME280;66966;-34.746;138.604;2023-02-08T05:55:02;100954.35;;;34.24;16.30
77778;BME280;66966;-34.746;138.604;2023-02-08T05:57:27;100954.80;;;34.23;16.26
77778;BME280;66966;-34.746;138.604;2023-02-08T05:59:53;100952.72;;;34.57;16.18
77778;BME280;66966;-34.746;138.604;2023-02-08T06:02:19;100950.58;;;35.06;16.04
77778;BME280;66966;-34.746;138.604;2023-02-08T06:04:45;100946.99;;;35.19;15.46
77778;BME280;66966;-34.746;138.604;2023-02-08T06:07:11;100949.40;;;35.44;15.19
77778;BME280;66966;-34.746;138.604;2023-02-08T06:09:36;100950.67;;;35.72;14.99
77778;BME280;66966;-34.746;138.604;2023-02-08T06:12:02;100945.38;;;36.12;14.87
77778;BME280;66966;-34.746;138.604;2023-02-08T06:14:28;100941.81;;;36.17;14.80
77778;BME280;66966;-34.746;138.604;2023-02-08T06:16:54;100944.62;;;36.28;14.57
77778;BME280;66966;-34.746;138.604;2023-02-08T06:19:20;100946.57;;;36.18;14.29
77778;BME280;66966;-34.746;138.604;2023-02-08T06:21:45;100950.93;;;36.37;14.59
77778;BME280;66966;-34.746;138.604;2023-02-08T06:24:11;100948.32;;;36.41;14.35
77778;BME280;66966;-34.746;138.604;2023-02-08T06:26:37;100946.43;;;36.46;14.74
77778;BME280;66966;-34.746;138.604;2023-02-08T06:29:02;100944.27;;;37.03;14.32
77778;BME280;66966;-34.746;138.604;2023-02-08T06:31:28;100942.22;;;36.54;13.74
77778;BME280;66966;-34.746;138.604;2023-02-08T06:33:54;100938.92;;;36.67;13.74
77778;BME280;66966;-34.746;138.604;2023-02-08T06:36:20;100937.00;;;36.90;13.67
77778;BME280;66966;-34.746;138.604;2023-02-08T06:38:46;100930.17;;;36.83;12.84
77778;BME280;66966;-34.746;138.604;2023-02-08T06:41:11;100926.54;;;37.04;12.51
77778;BME280;66966;-34.746;138.604;2023-02-08T06:43:37;100919.82;;;37.27;12.36
77778;BME280;66966;-34.746;138.604;2023-02-08T06:46:02;100918.60;;;37.66;12.50
77778;BME280;66966;-34.746;138.604;2023-02-08T06:48:28;100917.97;;;37.83;11.55
77778;BME280;66966;-34.746;138.604;2023-02-08T06:50:54;100911.46;;;37.68;11.28
77778;BME280;66966;-34.746;138.604;2023-02-08T06:53:20;100908.96;;;37.54;11.44
77778;BME280;66966;-34.746;138.604;2023-02-08T06:55:48;100900.98;;;37.72;11.74
77778;BME280;66966;-34.746;138.604;2023-02-08T06:58:11;100897.52;;;37.84;11.09
77778;BME280;66966;-34.746;138.604;2023-02-08T07:00:37;100901.34;;;37.82;10.77
77778;BME280;66966;-34.746;138.604;2023-02-08T07:03:03;100896.28;;;38.21;10.55
77778;BME280;66966;-34.746;138.604;2023-02-08T07:05:28;100894.74;;;38.29;10.67
77778;BME280;66966;-34.746;138.604;2023-02-08T07:07:54;100893.98;;;38.12;10.33
77778;BME280;66966;-34.746;138.604;2023-02-08T07:10:20;100891.86;;;38.09;10.47
77778;BME280;66966;-34.746;138.604;2023-02-08T07:12:45;100886.23;;;38.20;9.93
77778;BME280;66966;-34.746;138.604;2023-02-08T07:15:11;100889.37;;;38.19;10.28
77778;BME280;66966;-34.746;138.604;2023-02-08T07:17:37;100885.84;;;37.52;10.43
77778;BME280;66966;-34.746;138.604;2023-02-08T07:20:02;100881.43;;;37.48;10.59
77778;BME280;66966;-34.746;138.604;2023-02-08T07:22:28;100879.38;;;37.43;10.39
77778;BME280;66966;-34.746;138.604;2023-02-08T07:24:54;100874.54;;;37.54;10.54
77778;BME280;66966;-34.746;138.604;2023-02-08T07:27:20;100875.86;;;37.79;10.71
77778;BME280;66966;-34.746;138.604;2023-02-08T07:29:45;100873.67;;;38.36;10.63
77778;BME280;66966;-34.746;138.604;2023-02-08T07:32:11;100877.52;;;38.28;10.49
77778;BME280;66966;-34.746;138.604;2023-02-08T07:34:37;100872.60;;;38.54;10.54
77778;BME280;66966;-34.746;138.604;2023-02-08T07:37:02;100869.76;;;38.73;10.80
77778;BME280;66966;-34.746;138.604;2023-02-08T07:39:28;100873.03;;;38.53;10.89
77778;BME280;66966;-34.746;138.604;2023-02-08T07:41:54;100872.34;;;38.40;10.80
77778;BME280;66966;-34.746;138.604;2023-02-08T07:44:19;100871.33;;;38.42;11.00
77778;BME280;66966;-34.746;138.604;2023-02-08T07:46:45;100873.03;;;38.67;11.03
77778;BME280;66966;-34.746;138.604;2023-02-08T07:49:11;100867.74;;;38.56;11.03
77778;BME280;66966;-34.746;138.604;2023-02-08T07:51:37;100871.80;;;38.29;11.04
77778;BME280;66966;-34.746;138.604;2023-02-08T07:54:02;100868.25;;;38.75;10.85
77778;BME280;66966;-34.746;138.604;2023-02-08T07:56:28;100869.24;;;38.52;10.74
77778;BME280;66966;-34.746;138.604;2023-02-08T07:58:54;100867.68;;;38.68;10.83
77778;BME280;66966;-34.746;138.604;2023-02-08T08:01:19;100869.13;;;38.17;10.87
77778;BME280;66966;-34.746;138.604;2023-02-08T08:03:46;100867.67;;;38.09;11.03
77778;BME280;66966;-34.746;138.604;2023-02-08T08:06:11;100860.90;;;37.94;11.11
77778;BME280;66966;-34.746;138.604;2023-02-08T08:08:37;100863.30;;;38.05;11.00
77778;BME280;66966;-34.746;138.604;2023-02-08T08:11:03;100858.50;;;37.79;10.69
77778;BME280;66966;-34.746;138.604;2023-02-08T08:13:29;100859.55;;;37.64;10.59
77778;BME280;66966;-34.746;138.604;2023-02-08T08:15:54;100854.40;;;37.53;10.22
77778;BME280;66966;-34.746;138.604;2023-02-08T08:18:19;100852.93;;;37.45;10.46
77778;BME280;66966;-34.746;138.604;2023-02-08T08:20:45;100851.29;;;37.34;10.40
77778;BME280;66966;-34.746;138.604;2023-02-08T08:23:11;100845.78;;;37.66;10.51
77778;BME280;66966;-34.746;138.604;2023-02-08T08:25:38;100843.67;;;37.16;10.57
77778;BME280;66966;-34.746;138.604;2023-02-08T08:28:03;100843.24;;;37.58;10.50
77778;BME280;66966;-34.746;138.604;2023-02-08T08:30:28;100838.05;;;36.92;10.64
77778;BME280;66966;-34.746;138.604;2023-02-08T08:32:54;100831.50;;;37.20;10.83
77778;BME280;66966;-34.746;138.604;2023-02-08T08:35:20;100828.85;;;37.07;11.08
77778;BME280;66966;-34.746;138.604;2023-02-08T08:37:46;100828.24;;;37.01;11.20
77778;BME280;66966;-34.746;138.604;2023-02-08T08:40:12;100831.40;;;36.93;11.25
77778;BME280;66966;-34.746;138.604;2023-02-08T08:42:37;100833.28;;;36.86;11.30
77778;BME280;66966;-34.746;138.604;2023-02-08T08:45:02;100839.33;;;36.76;11.30
77778;BME280;66966;-34.746;138.604;2023-02-08T08:47:28;100842.23;;;36.72;11.14
77778;BME280;66966;-34.746;138.604;2023-02-08T08:49:54;100837.25;;;36.50;11.14
77778;BME280;66966;-34.746;138.604;2023-02-08T08:52:20;100836.59;;;36.59;11.23
77778;BME280;66966;-34.746;138.604;2023-02-08T08:54:45;100836.72;;;36.28;11.12
77778;BME280;66966;-34.746;138.604;2023-02-08T08:57:11;100837.26;;;36.61;11.14
77778;BME280;66966;-34.746;138.604;2023-02-08T08:59:37;100835.24;;;36.11;11.14
77778;BME280;66966;-34.746;138.604;2023-02-08T09:02:03;100837.74;;;35.93;11.22
77778;BME280;66966;-34.746;138.604;2023-02-08T09:04:28;100841.02;;;35.85;11.20
77778;BME280;66966;-34.746;138.604;2023-02-08T09:06:55;100843.76;;;35.38;11.29
77778;BME280;66966;-34.746;138.604;2023-02-08T09:09:21;100851.06;;;35.38;11.46
77778;BME280;66966;-34.746;138.604;2023-02-08T09:11:46;100850.68;;;35.00;11.45
77778;BME280;66966;-34.746;138.604;2023-02-08T09:14:12;100854.87;;;34.91;11.55
77778;BME280;66966;-34.746;138.604;2023-02-08T09:16:39;100856.87;;;34.91;11.61
77778;BME280;66966;-34.746;138.604;2023-02-08T09:19:05;100857.70;;;34.65;11.55
77778;BME280;66966;-34.746;138.604;2023-02-08T09:21:29;100863.03;;;34.63;11.79
77778;BME280;66966;-34.746;138.604;2023-02-08T09:23:55;100867.21;;;34.55;11.90
77778;BME280;66966;-34.746;138.604;2023-02-08T09:26:22;100868.21;;;34.50;12.05
77778;BME280;66966;-34.746;138.604;2023-02-08T09:28:46;100872.85;;;34.50;12.04
77778;BME280;66966;-34.746;138.604;2023-02-08T09:31:18;100879.71;;;34.41;12.05
77778;BME280;66966;-34.746;138.604;2023-02-08T09:33:38;100881.66;;;34.50;11.98
77778;BME280;66966;-34.746;138.604;2023-02-08T09:36:04;100885.92;;;34.07;11.91
77778;BME280;66966;-34.746;138.604;2023-02-08T09:38:30;100889.82;;;34.03;11.82
77778;BME280;66966;-34.746;138.604;2023-02-08T09:41:02;100889.69;;;33.85;11.92
77778;BME280;66966;-34.746;138.604;2023-02-08T09:43:28;100896.08;;;33.84;11.74
77778;BME280;66966;-34.746;138.604;2023-02-08T09:45:51;100898.35;;;33.85;11.43
77778;BME280;66966;-34.746;138.604;2023-02-08T09:48:19;100896.57;;;33.73;11.18
77778;BME280;66966;-34.746;138.604;2023-02-08T09:50:44;100898.46;;;33.48;11.07
77778;BME280;66966;-34.746;138.604;2023-02-08T09:53:10;100901.02;;;33.36;11.05
77778;BME280;66966;-34.746;138.604;2023-02-08T09:55:35;100904.02;;;33.22;11.29
77778;BME280;66966;-34.746;138.604;2023-02-08T09:57:58;100905.67;;;33.09;11.36
77778;BME280;66966;-34.746;138.604;2023-02-08T10:00:29;100907.29;;;33.02;11.57
77778;BME280;66966;-34.746;138.604;2023-02-08T10:02:49;100904.96;;;32.82;11.81
77778;BME280;66966;-34.746;138.604;2023-02-08T10:05:18;100905.38;;;32.90;12.07
77778;BME280;66966;-34.746;138.604;2023-02-08T10:07:40;100903.86;;;32.80;12.29
77778;BME280;66966;-34.746;138.604;2023-02-08T10:10:10;100902.65;;;32.50;12.74
77778;BME280;66966;-34.746;138.604;2023-02-08T10:12:40;100899.55;;;32.67;12.95
77778;BME280;66966;-34.746;138.604;2023-02-08T10:15:06;100900.41;;;32.25;13.24
77778;BME280;66966;-34.746;138.604;2023-02-08T10:17:35;100903.84;;;32.48;13.28
77778;BME280;66966;-34.746;138.604;2023-02-08T10:19:57;100907.39;;;32.20;13.30
77778;BME280;66966;-34.746;138.604;2023-02-08T10:22:21;100910.73;;;32.20;13.39
77778;BME280;66966;-34.746;138.604;2023-02-08T10:24:54;100915.21;;;31.74;13.40
77778;BME280;66966;-34.746;138.604;2023-02-08T10:27:09;100915.62;;;32.09;13.57
77778;BME280;66966;-34.746;138.604;2023-02-08T10:32:03;100927.22;;;31.68;13.55
77778;BME280;66966;-34.746;138.604;2023-02-08T10:34:28;100928.67;;;31.87;13.65
77778;BME280;66966;-34.746;138.604;2023-02-08T10:36:42;100930.32;;;31.49;13.71
77778;BME280;66966;-34.746;138.604;2023-02-08T10:39:15;100931.92;;;31.88;13.74
77778;BME280;66966;-34.746;138.604;2023-02-08T10:41:34;100932.13;;;31.48;13.96
77778;BME280;66966;-34.746;138.604;2023-02-08T10:44:03;100936.23;;;31.57;14.00
77778;BME280;66966;-34.746;138.604;2023-02-08T10:46:29;100939.69;;;31.42;13.98
77778;BME280;66966;-34.746;138.604;2023-02-08T10:48:56;100941.66;;;31.39;13.89
77778;BME280;66966;-34.746;138.604;2023-02-08T10:51:14;100943.96;;;31.25;13.63
77778;BME280;66966;-34.746;138.604;2023-02-08T10:53:37;100942.68;;;30.92;13.66
77778;BME280;66966;-34.746;138.604;2023-02-08T10:56:03;100946.52;;;30.76;13.44
77778;BME280;66966;-34.746;138.604;2023-02-08T10:58:27;100944.87;;;30.88;13.55
77778;BME280;66966;-34.746;138.604;2023-02-08T11:00:53;100949.16;;;30.79;13.55
77778;BME280;66966;-34.746;138.604;2023-02-08T11:03:22;100952.09;;;30.36;13.69
77778;BME280;66966;-34.746;138.604;2023-02-08T11:05:42;100955.60;;;30.46;13.81
77778;BME280;66966;-34.746;138.604;2023-02-08T11:08:09;100958.13;;;30.53;14.04
77778;BME280;66966;-34.746;138.604;2023-02-08T11:10:33;100957.36;;;30.32;14.14
77778;BME280;66966;-34.746;138.604;2023-02-08T11:12:59;100955.72;;;30.39;14.22
77778;BME280;66966;-34.746;138.604;2023-02-08T11:15:24;100951.40;;;30.07;13.99
77778;BME280;66966;-34.746;138.604;2023-02-08T11:17:53;100949.86;;;30.26;14.05
77778;BME280;66966;-34.746;138.604;2023-02-08T11:20:20;100947.06;;;30.22;13.88
77778;BME280;66966;-34.746;138.604;2023-02-08T11:22:38;100948.87;;;30.16;13.65
77778;BME280;66966;-34.746;138.604;2023-02-08T11:25:05;100951.42;;;30.13;13.55
77778;BME280;66966;-34.746;138.604;2023-02-08T11:27:32;100955.15;;;30.09;13.64
77778;BME280;66966;-34.746;138.604;2023-02-08T11:32:20;100950.97;;;30.00;13.76
77778;BME280;66966;-34.746;138.604;2023-02-08T11:34:43;100953.03;;;29.91;13.72
77778;BME280;66966;-34.746;138.604;2023-02-08T11:37:15;100950.67;;;29.88;13.66
77778;BME280;66966;-34.746;138.604;2023-02-08T11:39:38;100949.34;;;29.83;13.74
77778;BME280;66966;-34.746;138.604;2023-02-08T11:42:00;100950.40;;;29.70;13.79
77778;BME280;66966;-34.746;138.604;2023-02-08T11:44:27;100951.24;;;29.80;13.91
77778;BME280;66966;-34.746;138.604;2023-02-08T11:46:50;100952.65;;;29.45;14.14
77778;BME280;66966;-34.746;138.604;2023-02-08T11:49:20;100948.39;;;29.52;14.43
77778;BME280;66966;-34.746;138.604;2023-02-08T11:51:39;100947.94;;;29.62;14.60
77778;BME280;66966;-34.746;138.604;2023-02-08T11:54:05;100950.55;;;29.49;14.68
77778;BME280;66966;-34.746;138.604;2023-02-08T11:56:30;100949.44;;;29.39;14.68
77778;BME280;66966;-34.746;138.604;2023-02-08T11:59:03;100948.88;;;29.34;14.50
77778;BME280;66966;-34.746;138.604;2023-02-08T12:01:21;100945.53;;;29.35;14.40
77778;BME280;66966;-34.746;138.604;2023-02-08T12:03:45;100941.77;;;29.21;14.30
77778;BME280;66966;-34.746;138.604;2023-02-08T12:06:18;100942.11;;;29.18;14.22
77778;BME280;66966;-34.746;138.604;2023-02-08T12:08:41;100939.49;;;29.09;14.11
77778;BME280;66966;-34.746;138.604;2023-02-08T12:11:07;100940.18;;;29.10;14.08
77778;BME280;66966;-34.746;138.604;2023-02-08T12:13:40;100939.90;;;29.06;14.02
77778;BME280;66966;-34.746;138.604;2023-02-08T12:15:57;100941.60;;;28.74;13.98
77778;BME280;66966;-34.746;138.604;2023-02-08T12:18:25;100941.64;;;28.96;13.98
77778;BME280;66966;-34.746;138.604;2023-02-08T12:20:42;100941.40;;;28.86;14.15
77778;BME280;66966;-34.746;138.604;2023-02-08T12:23:16;100938.96;;;28.73;14.15
77778;BME280;66966;-34.746;138.604;2023-02-08T12:25:36;100936.24;;;28.64;13.95
77778;BME280;66966;-34.746;138.604;2023-02-08T12:28:01;100934.51;;;28.58;14.05